Time;durP1;ratioP1;P1;durP2;ratioP2;P2;SDS_P1;SDS_P2;PMS_P1;PMS_P2;Temp;Humidity;BMP_temperature;BMP_pressure;BME280_temperature;BME280_humidity;BME280_pressure;Samples;Min_cycle;Max_cycle;Signal;HPM_P1;HPM_P2
2023/12/07 00:00:48;;;;;;;17.48;12.70;;;;;;;3.27;83.47;96929.31;5079445;28;20068;-80
2023/12/07 00:03:16;;;;;;;16.70;12.65;;;;;;;3.23;82.55;96925.34;5079509;28;20067;-80
2023/12/07 00:05:45;;;;;;;20.17;13.93;;;;;;;3.20;81.95;96926.44;5079437;28;20045;-80
2023/12/07 00:08:13;;;;;;;19.48;13.32;;;;;;;3.19;81.96;96929.13;5078635;28;20428;-80
2023/12/07 00:10:40;;;;;;;19.67;13.23;;;;;;;3.16;82.12;96932.78;5078050;28;20142;-80
2023/12/07 00:13:08;;;;;;;22.10;13.30;;;;;;;3.19;82.98;96932.53;5079231;28;20048;-81
2023/12/07 00:15:36;;;;;;;17.42;11.63;;;;;;;3.20;82.51;96931.59;5079484;28;20060;-81
2023/12/07 00:18:04;;;;;;;18.60;12.77;;;;;;;3.14;81.69;96937.25;5085579;28;20079;-80
2023/12/07 00:20:32;;;;;;;18.52;13.45;;;;;;;3.12;81.77;96939.13;5086574;28;20048;-80
2023/12/07 00:23:01;;;;;;;17.10;12.75;;;;;;;3.09;81.30;96941.97;5085955;28;20044;-80
2023/12/07 00:25:28;;;;;;;18.65;13.15;;;;;;;3.08;81.42;96948.03;5080425;28;20493;-81
2023/12/07 00:27:56;;;;;;;16.73;11.60;;;;;;;3.05;80.94;96945.75;5079950;28;20052;-81
2023/12/07 00:30:24;;;;;;;19.27;11.93;;;;;;;3.04;80.77;96949.25;5080829;28;20485;-81
2023/12/07 00:32:51;;;;;;;18.80;12.55;;;;;;;3.05;80.72;96943.97;5080156;28;20048;-80
2023/12/07 00:35:21;;;;;;;18.45;13.38;;;;;;;3.05;81.93;96943.16;5079859;28;20051;-80
2023/12/07 00:37:49;;;;;;;16.70;12.10;;;;;;;3.07;81.96;96949.00;5079504;28;20128;-80
2023/12/07 00:40:18;;;;;;;21.42;12.93;;;;;;;3.09;83.03;96954.84;5079766;28;20044;-81
2023/12/07 00:42:46;;;;;;;22.42;14.48;;;;;;;3.14;84.17;96950.13;5079457;28;20059;-80
2023/12/07 00:45:14;;;;;;;21.83;14.00;;;;;;;3.19;84.78;96950.59;5079787;28;20041;-80
2023/12/07 00:47:42;;;;;;;19.08;13.68;;;;;;;3.23;85.60;96953.72;5080098;28;20135;-81
2023/12/07 00:50:13;;;;;;;19.55;14.15;;;;;;;3.23;84.37;96951.94;5082177;28;20044;-80
2023/12/07 00:52:41;;;;;;;20.77;14.07;;;;;;;3.20;84.17;96954.78;5083446;28;20048;-81
2023/12/07 00:55:08;;;;;;;21.45;14.18;;;;;;;3.17;83.29;96957.63;5079472;28;20499;-81
2023/12/07 00:57:40;;;;;;;20.85;14.85;;;;;;;3.15;82.90;96961.25;5078702;28;20068;-80
2023/12/07 01:00:10;;;;;;;18.00;13.32;;;;;;;3.13;83.18;96961.41;5079032;28;20052;-80
2023/12/07 01:02:38;;;;;;;18.65;12.10;;;;;;;3.14;81.82;96965.59;5076321;28;20134;-80
2023/12/07 01:05:06;;;;;;;21.33;13.40;;;;;;;3.13;81.57;96974.28;5076015;28;20088;-80
2023/12/07 01:07:34;;;;;;;16.70;11.68;;;;;;;3.17;82.75;96978.25;5076035;28;20060;-80
2023/12/07 01:10:02;;;;;;;15.27;10.90;;;;;;;3.20;82.39;96977.16;5075720;28;20056;-80
2023/12/07 01:12:29;;;;;;;20.58;13.15;;;;;;;3.21;82.06;96979.59;5076068;28;20048;-80
2023/12/07 01:14:58;;;;;;;20.65;13.60;;;;;;;3.21;80.87;96971.88;5075615;28;20132;-80
2023/12/07 01:17:26;;;;;;;16.88;11.25;;;;;;;3.19;80.12;96973.78;5076053;28;20476;-80
2023/12/07 01:19:53;;;;;;;16.08;11.45;;;;;;;3.13;79.64;96971.72;5075944;28;20613;-80
2023/12/07 01:22:21;;;;;;;16.58;11.88;;;;;;;3.10;79.60;96977.09;5075918;28;20048;-80
2023/12/07 01:24:49;;;;;;;15.82;11.77;;;;;;;3.07;79.94;96974.78;5075810;28;20044;-80
2023/12/07 01:27:18;;;;;;;15.98;10.98;;;;;;;3.03;79.38;96988.84;5075798;28;20413;-80
2023/12/07 01:29:45;;;;;;;14.98;9.95;;;;;;;3.00;79.25;96989.94;5075292;28;20102;-80
2023/12/07 01:32:14;;;;;;;14.43;11.38;;;;;;;3.00;80.59;96989.13;5075102;28;20499;-80
2023/12/07 01:34:42;;;;;;;15.80;11.10;;;;;;;2.98;80.62;96988.44;5075554;28;20067;-80
2023/12/07 01:37:09;;;;;;;16.65;11.95;;;;;;;2.96;79.43;96993.69;5075569;28;20048;-80
2023/12/07 01:39:37;;;;;;;17.15;12.23;;;;;;;2.95;79.12;96998.97;5075873;28;20075;-80
2023/12/07 01:42:05;;;;;;;14.45;9.93;;;;;;;2.94;78.88;97005.88;5075308;28;20077;-80
2023/12/07 01:44:32;;;;;;;15.40;9.73;;;;;;;2.93;78.42;97013.72;5075403;28;20045;-80
2023/12/07 01:47:01;;;;;;;12.73;9.68;;;;;;;2.89;78.55;97016.56;5075041;28;20076;-80
2023/12/07 01:49:30;;;;;;;14.82;9.63;;;;;;;2.92;79.64;97022.41;5075191;28;20107;-80
2023/12/07 01:51:58;;;;;;;15.20;10.88;;;;;;;2.98;81.40;97016.78;5075410;28;20056;-80
2023/12/07 01:54:26;;;;;;;14.43;10.77;;;;;;;3.01;81.85;97022.47;5075277;28;20052;-80
2023/12/07 01:56:54;;;;;;;18.35;10.90;;;;;;;2.96;80.86;97013.50;5075504;28;20131;-80
2023/12/07 01:59:21;;;;;;;15.95;11.15;;;;;;;2.98;80.40;97009.03;5075020;28;20493;-80
2023/12/07 02:01:50;;;;;;;16.30;9.93;;;;;;;2.99;81.23;97010.66;5074800;28;20079;-80
2023/12/07 02:04:18;;;;;;;16.15;10.52;;;;;;;3.03;82.33;97017.22;5074987;28;20102;-80
2023/12/07 02:06:48;;;;;;;15.90;11.38;;;;;;;3.03;81.85;97020.59;5074944;28;20512;-80
2023/12/07 02:09:16;;;;;;;17.92;11.93;;;;;;;3.05;82.93;97013.56;5074953;28;20131;-81
2023/12/07 02:11:43;;;;;;;17.85;11.18;;;;;;;3.08;83.21;97009.91;5075545;28;20127;-80
2023/12/07 02:14:12;;;;;;;13.80;10.05;;;;;;;3.08;81.43;97013.31;5074927;28;20128;-80
2023/12/07 02:16:46;;;;;;;16.15;11.32;;;;;;;3.05;80.74;97016.13;5075066;28;20082;-80
2023/12/07 02:19:32;;;;;;;13.18;10.05;;;;;;;3.01;79.90;97009.59;5074732;28;20112;-80
2023/12/07 02:22:09;;;;;;;16.65;11.63;;;;;;;2.99;81.44;97008.91;5075606;28;20048;-81
2023/12/07 02:24:38;;;;;;;16.25;10.70;;;;;;;3.00;83.34;97015.69;5074733;28;20040;-80
2023/12/07 02:27:07;;;;;;;15.75;10.80;;;;;;;3.01;82.52;97019.09;5074516;28;20048;-80
2023/12/07 02:29:35;;;;;;;16.65;11.23;;;;;;;3.04;83.43;97017.09;5075039;28;20495;-80
2023/12/07 02:32:03;;;;;;;18.25;11.23;;;;;;;3.09;84.53;97019.28;5074886;28;20075;-80
2023/12/07 02:34:30;;;;;;;17.50;11.20;;;;;;;3.09;83.82;97021.88;5074692;28;20044;-80
2023/12/07 02:36:59;;;;;;;16.60;10.45;;;;;;;3.08;83.64;97017.66;5074500;28;20492;-80
2023/12/07 02:39:27;;;;;;;15.73;10.80;;;;;;;3.11;83.10;97016.59;5074460;28;20082;-80
2023/12/07 02:41:57;;;;;;;15.43;10.70;;;;;;;3.10;82.19;97013.19;5073464;28;20184;-80
2023/12/07 02:44:26;;;;;;;14.07;9.75;;;;;;;3.13;81.93;97020.69;5072634;28;20464;-82
2023/12/07 02:46:54;;;;;;;18.27;11.85;;;;;;;3.13;82.93;97018.09;5073958;28;20053;-80
2023/12/07 02:49:22;;;;;;;15.10;10.88;;;;;;;3.18;84.08;97018.53;5074725;28;20044;-80
2023/12/07 02:51:49;;;;;;;17.15;10.93;;;;;;;3.17;83.30;97011.75;5074563;28;20053;-80
2023/12/07 02:54:17;;;;;;;16.85;10.57;;;;;;;3.13;82.12;97020.69;5075005;28;20056;-80
2023/12/07 02:56:44;;;;;;;14.18;9.85;;;;;;;3.11;82.97;97014.84;5075777;28;20060;-80
2023/12/07 02:59:12;;;;;;;16.15;10.98;;;;;;;3.10;83.32;97026.06;5078195;28;20076;-80
2023/12/07 03:01:41;;;;;;;15.55;10.95;;;;;;;3.08;82.39;97027.94;5078458;28;20055;-80
2023/12/07 03:04:09;;;;;;;18.63;10.75;;;;;;;3.07;82.24;97023.75;5077655;28;20257;-80
2023/12/07 03:06:36;;;;;;;16.40;11.25;;;;;;;3.07;81.81;97023.75;5077706;28;20135;-80
2023/12/07 03:09:04;;;;;;;16.60;11.00;;;;;;;3.09;82.90;97030.41;5078657;28;20094;-80
2023/12/07 03:11:32;;;;;;;17.27;10.65;;;;;;;3.11;83.14;97030.28;5078153;28;20078;-80
2023/12/07 03:13:59;;;;;;;14.10;10.18;;;;;;;3.10;83.17;97033.81;5078701;28;20079;-80
2023/12/07 03:16:27;;;;;;;16.15;11.38;;;;;;;3.15;84.72;97026.53;5078406;28;20131;-80
2023/12/07 03:18:56;;;;;;;15.68;11.27;;;;;;;3.19;85.25;97029.66;5077938;28;20052;-80
2023/12/07 03:21:24;;;;;;;13.55;9.85;;;;;;;3.21;84.37;97033.75;5078218;28;20053;-80
2023/12/07 03:23:52;;;;;;;16.30;11.20;;;;;;;3.25;84.17;97024.81;5078360;28;20094;-80
2023/12/07 03:26:19;;;;;;;20.52;12.68;;;;;;;3.28;85.36;97029.75;5078007;28;20048;-80
2023/12/07 03:28:47;;;;;;;15.15;11.40;;;;;;;3.28;84.98;97022.00;5078392;28;20045;-80
2023/12/07 03:31:14;;;;;;;21.48;10.80;;;;;;;3.27;84.24;97030.66;5077742;28;20094;-80
2023/12/07 03:33:43;;;;;;;21.25;12.65;;;;;;;3.29;85.93;97035.72;5077742;28;20052;-80
2023/12/07 03:36:13;;;;;;;16.05;11.13;;;;;;;3.27;85.11;97030.66;5077230;28;20075;-80
2023/12/07 03:38:40;;;;;;;13.95;10.65;;;;;;;3.26;84.69;97030.81;5077948;28;20474;-80
2023/12/07 03:41:08;;;;;;;14.80;10.75;;;;;;;3.27;85.44;97033.25;5077639;28;20116;-79
2023/12/07 03:43:36;;;;;;;45.25;14.32;;;;;;;3.26;85.61;97034.22;5077593;28;20247;-80
2023/12/07 03:46:05;;;;;;;21.90;12.30;;;;;;;3.24;86.52;97037.84;5077507;28;20427;-80
2023/12/07 03:48:33;;;;;;;16.73;11.18;;;;;;;3.22;85.69;97032.81;5077136;28;20052;-80
2023/12/07 03:51:01;;;;;;;15.35;10.13;;;;;;;3.20;84.83;97034.69;5077729;28;20115;-80
2023/12/07 03:53:30;;;;;;;15.77;11.52;;;;;;;3.17;84.12;97036.69;5077556;28;20116;-80
2023/12/07 03:55:58;;;;;;;15.05;10.45;;;;;;;3.18;84.22;97046.91;5077288;28;20083;-80
2023/12/07 03:58:25;;;;;;;16.88;11.60;;;;;;;3.24;85.05;97038.66;5077371;28;20055;-80
2023/12/07 04:00:53;;;;;;;15.57;11.52;;;;;;;3.27;84.75;97047.91;5077288;28;20139;-80
2023/12/07 04:03:21;;;;;;;16.52;10.90;;;;;;;3.24;82.97;97038.66;5077406;28;20524;-80
2023/12/07 04:05:48;;;;;;;15.25;9.70;;;;;;;3.23;81.76;97046.53;5077210;28;20074;-80
2023/12/07 04:08:16;;;;;;;14.30;10.50;;;;;;;3.22;81.23;97043.13;5076334;28;20129;-80
2023/12/07 04:10:45;;;;;;;16.70;11.77;;;;;;;3.21;81.11;97040.66;5077489;28;20049;-80
2023/12/07 04:13:12;;;;;;;15.63;10.05;;;;;;;3.20;80.78;97042.44;5076417;28;20056;-80
2023/12/07 04:15:40;;;;;;;15.63;10.95;;;;;;;3.22;81.72;97034.59;5077601;28;20109;-80
2023/12/07 04:18:08;;;;;;;14.20;10.70;;;;;;;3.23;82.37;97042.16;5076485;28;20053;-80
2023/12/07 04:20:35;;;;;;;15.63;10.48;;;;;;;3.26;82.43;97041.13;5077033;28;20052;-80
2023/12/07 04:23:03;;;;;;;16.05;11.00;;;;;;;3.25;81.26;97048.03;5077178;28;20078;-80
2023/12/07 04:25:31;;;;;;;12.68;9.82;;;;;;;3.21;80.12;97044.06;5076771;28;20049;-80
2023/12/07 04:28:00;;;;;;;14.38;9.82;;;;;;;3.15;79.93;97052.31;5076641;28;20048;-80
2023/12/07 04:30:27;;;;;;;14.32;10.43;;;;;;;3.15;80.27;97051.47;5075603;28;20056;-80
2023/12/07 04:32:55;;;;;;;15.77;11.15;;;;;;;3.14;80.31;97050.66;5075639;28;20477;-82
2023/12/07 04:35:22;;;;;;;12.27;10.05;;;;;;;3.14;80.91;97058.38;5075938;28;20055;-80
2023/12/07 04:37:50;;;;;;;13.32;9.68;;;;;;;3.14;80.62;97052.44;5076626;28;20041;-80
2023/12/07 04:40:18;;;;;;;16.02;10.82;;;;;;;3.14;80.55;97058.38;5076969;28;20049;-80
2023/12/07 04:42:45;;;;;;;14.52;10.90;;;;;;;3.16;81.07;97055.69;5077771;28;20052;-80
2023/12/07 04:45:14;;;;;;;13.73;10.27;;;;;;;3.13;80.19;97063.66;5086010;28;20118;-80
2023/12/07 04:47:42;;;;;;;15.05;11.05;;;;;;;3.13;79.67;97061.09;5085789;28;20075;-80
2023/12/07 04:50:10;;;;;;;15.13;10.82;;;;;;;3.12;79.83;97064.63;5083736;28;20052;-80
2023/12/07 04:52:38;;;;;;;17.17;11.52;;;;;;;3.12;80.10;97067.19;5077183;28;20472;-79
2023/12/07 04:55:07;;;;;;;15.15;10.75;;;;;;;3.09;80.52;97070.84;5076713;28;20098;-80
2023/12/07 04:57:34;;;;;;;17.83;11.82;;;;;;;3.06;80.52;97061.59;5076642;28;20052;-80
2023/12/07 05:00:05;;;;;;;15.45;10.63;;;;;;;3.03;81.31;97061.03;5075662;28;20084;-80
2023/12/07 05:02:35;;;;;;;13.85;11.07;;;;;;;3.03;81.82;97067.00;5077833;28;20510;-80
2023/12/07 05:05:02;;;;;;;14.77;11.43;;;;;;;3.03;82.15;97059.25;5083943;28;20063;-81
2023/12/07 05:07:30;;;;;;;16.77;11.82;;;;;;;3.02;81.69;97064.56;5095449;28;20052;-80
2023/12/07 05:09:58;;;;;;;15.18;10.50;;;;;;;3.03;81.78;97061.03;5080317;28;20044;-80
2023/12/07 05:12:26;;;;;;;15.27;10.77;;;;;;;3.02;81.51;97059.41;5077282;28;20500;-80
2023/12/07 05:14:53;;;;;;;13.55;10.65;;;;;;;3.01;80.22;97068.88;5076545;28;20064;-80
2023/12/07 05:17:21;;;;;;;17.23;12.07;;;;;;;3.01;80.45;97061.13;5075720;28;20105;-80
2023/12/07 05:19:50;;;;;;;15.25;10.90;;;;;;;3.02;82.55;97069.72;5076277;28;20055;-80
2023/12/07 05:22:18;;;;;;;15.15;10.88;;;;;;;3.05;81.94;97061.72;5074726;28;20127;-80
2023/12/07 05:24:45;;;;;;;14.35;10.70;;;;;;;3.02;80.56;97059.41;5075917;28;20048;-80
2023/12/07 05:27:13;;;;;;;19.25;12.18;;;;;;;3.01;80.59;97066.28;5075154;28;20075;-80
2023/12/07 05:29:41;;;;;;;16.80;11.60;;;;;;;3.04;82.28;97062.66;5075858;28;20041;-81
2023/12/07 05:32:09;;;;;;;14.55;10.38;;;;;;;3.05;82.28;97059.13;5075072;28;20048;-80
2023/12/07 05:34:36;;;;;;;18.58;12.93;;;;;;;3.01;81.21;97057.75;5071714;28;20131;-79
2023/12/07 05:37:05;;;;;;;17.25;12.50;;;;;;;3.01;82.46;97062.91;5055934;28;20045;-80
2023/12/07 05:39:33;;;;;;;15.82;11.32;;;;;;;3.04;84.38;97057.50;5055460;28;20576;-80
2023/12/07 05:42:01;;;;;;;20.52;13.25;;;;;;;3.07;85.50;97063.22;5090651;28;20052;-80
2023/12/07 05:44:29;;;;;;;18.85;13.43;;;;;;;3.11;84.56;97068.97;5095847;28;20059;-80
2023/12/07 05:46:57;;;;;;;18.23;12.63;;;;;;;3.14;85.58;97073.84;5096115;28;20098;-80
2023/12/07 05:49:25;;;;;;;19.27;13.40;;;;;;;3.14;85.79;97073.84;5095549;28;20512;-80
2023/12/07 05:51:53;;;;;;;19.50;13.38;;;;;;;3.14;85.50;97068.69;5096227;28;20503;-80
2023/12/07 05:54:22;;;;;;;18.73;12.95;;;;;;;3.14;85.59;97073.06;5081357;28;20056;-80
2023/12/07 05:56:50;;;;;;;20.63;14.15;;;;;;;3.13;84.70;97071.41;5062611;28;20415;-79
2023/12/07 05:59:18;;;;;;;21.05;13.82;;;;;;;3.07;82.88;97067.56;5074221;28;20076;-80
2023/12/07 06:01:45;;;;;;;34.83;19.67;;;;;;;2.98;81.53;97069.13;5056223;28;20099;-80
2023/12/07 06:04:13;;;;;;;27.63;17.73;;;;;;;2.91;83.06;97062.00;5070833;28;20049;-80
2023/12/07 06:06:41;;;;;;;28.90;16.90;;;;;;;2.86;83.09;97068.34;5073698;28;20048;-79
2023/12/07 06:09:09;;;;;;;20.05;13.82;;;;;;;2.83;82.76;97072.94;5073849;28;20102;-79
2023/12/07 06:11:38;;;;;;;19.27;12.70;;;;;;;2.80;82.47;97068.84;5070178;28;20045;-79
2023/12/07 06:14:06;;;;;;;20.30;13.38;;;;;;;2.75;81.24;97068.34;5059605;28;20572;-79
2023/12/07 06:16:34;;;;;;;23.33;14.27;;;;;;;2.70;80.81;97078.22;5065542;28;20049;-81
2023/12/07 06:19:01;;;;;;;26.90;15.27;;;;;;;2.70;83.06;97080.78;5071126;28;20074;-79
2023/12/07 06:21:29;;;;;;;24.60;15.57;;;;;;;2.74;83.99;97076.22;5094112;28;20507;-79
2023/12/07 06:23:58;;;;;;;30.52;18.23;;;;;;;2.75;83.95;97086.41;5084222;28;20094;-79
2023/12/07 06:26:26;;;;;;;27.48;15.98;;;;;;;2.78;83.44;97077.63;5062184;28;20087;-79
2023/12/07 06:28:55;;;;;;;27.33;17.40;;;;;;;2.76;82.23;97077.75;5077722;28;20508;-78
2023/12/07 06:31:22;;;;;;;27.70;18.45;;;;;;;2.72;81.90;97083.25;5070727;28;20076;-78
2023/12/07 06:33:50;;;;;;;36.83;22.52;;;;;;;2.65;81.04;97078.59;5065881;28;20420;-78
2023/12/07 06:36:22;;;;;;;30.42;19.88;;;;;;;2.59;81.54;97081.63;5070513;28;20049;-78
2023/12/07 06:38:49;;;;;;;30.15;18.83;;;;;;;2.60;82.56;97087.59;5073327;28;20135;-78
2023/12/07 06:41:17;;;;;;;27.13;18.88;;;;;;;2.58;83.42;97090.31;5072223;28;20135;-79
2023/12/07 06:43:45;;;;;;;21.40;13.95;;;;;;;2.55;82.53;97087.97;5073148;28;20490;-80
2023/12/07 06:46:16;;;;;;;26.25;15.25;;;;;;;2.47;81.01;97085.16;5067380;28;20447;-80
2023/12/07 06:48:44;;;;;;;20.45;12.95;;;;;;;2.41;80.91;97081.31;5053810;28;20137;-79
2023/12/07 06:51:12;;;;;;;19.55;13.00;;;;;;;2.34;80.53;97082.75;5053172;28;20107;-79
2023/12/07 06:53:40;;;;;;;20.17;12.13;;;;;;;2.31;80.24;97079.56;5056113;28;20436;-80
2023/12/07 06:56:09;;;;;;;17.98;12.48;;;;;;;2.29;80.61;97081.44;5066285;28;20102;-80
2023/12/07 06:58:37;;;;;;;23.83;14.35;;;;;;;2.27;81.88;97086.69;5072617;28;20486;-79
2023/12/07 07:01:04;;;;;;;25.05;12.80;;;;;;;2.30;83.71;97088.25;5089013;22;20055;-75
2023/12/07 07:03:35;;;;;;;17.77;12.20;;;;;;;2.30;84.07;97090.81;5071877;28;20062;-76
2023/12/07 07:06:02;;;;;;;18.17;11.98;;;;;;;2.23;83.03;97082.72;5065430;28;20053;-76
2023/12/07 07:08:30;;;;;;;17.02;10.98;;;;;;;2.19;81.70;97081.34;5068313;28;20128;-75
2023/12/07 07:10:58;;;;;;;16.42;11.02;;;;;;;2.16;81.72;97081.56;5067352;28;20153;-75
2023/12/07 07:13:25;;;;;;;20.10;11.82;;;;;;;2.16;82.74;97091.84;5055984;28;20045;-76
2023/12/07 07:15:54;;;;;;;16.65;11.55;;;;;;;2.21;84.34;97094.91;5053432;28;20045;-75
2023/12/07 07:18:23;;;;;;;18.05;11.43;;;;;;;2.21;83.85;97094.91;5051841;28;20106;-75
2023/12/07 07:20:53;;;;;;;23.08;13.40;;;;;;;2.16;82.96;97095.25;5062950;28;20044;-76
2023/12/07 07:23:20;;;;;;;19.73;12.45;;;;;;;2.19;83.50;97096.78;5071704;28;20048;-75
2023/12/07 07:25:48;;;;;;;19.52;12.30;;;;;;;2.21;84.56;97102.63;5052937;28;20085;-76
2023/12/07 07:28:15;;;;;;;20.95;13.45;;;;;;;2.20;83.92;97103.56;5052510;28;20048;-75
2023/12/07 07:30:44;;;;;;;19.50;12.93;;;;;;;2.17;83.85;97106.38;5052353;28;20045;-76
2023/12/07 07:33:11;;;;;;;17.73;12.68;;;;;;;2.17;84.22;97098.66;5051114;28;20128;-76
2023/12/07 07:35:39;;;;;;;21.55;12.45;;;;;;;2.14;83.03;97096.31;5052381;28;20122;-76
2023/12/07 07:38:08;;;;;;;17.75;12.27;;;;;;;2.10;82.13;97098.31;5052078;28;20049;-75
2023/12/07 07:40:35;;;;;;;19.33;12.70;;;;;;;2.08;81.91;97099.34;5051251;28;20450;-76
2023/12/07 07:43:03;;;;;;;18.67;12.15;;;;;;;2.08;83.17;97094.19;5069096;28;20079;-76
2023/12/07 07:45:31;;;;;;;18.05;11.43;;;;;;;2.08;83.72;97099.34;5070791;28;20055;-75
2023/12/07 07:47:58;;;;;;;21.77;12.15;;;;;;;2.04;83.56;97109.88;5076108;28;20040;-75
2023/12/07 07:50:26;;;;;;;16.83;11.90;;;;;;;2.03;83.04;97109.97;5061682;28;20515;-75
2023/12/07 07:52:55;;;;;;;17.42;11.30;;;;;;;2.03;83.85;97103.09;5067958;28;20045;-75
2023/12/07 07:55:25;;;;;;;21.52;13.13;;;;;;;2.04;83.11;97109.06;5055860;28;20088;-76
2023/12/07 07:57:53;;;;;;;20.35;13.25;;;;;;;2.01;81.56;97091.25;5064173;28;20059;-75
2023/12/07 08:00:21;;;;;;;22.48;11.68;;;;;;;1.96;80.78;97086.47;5073469;28;20562;-75
2023/12/07 08:02:50;;;;;;;15.82;10.85;;;;;;;1.93;80.31;97094.44;5055354;28;20654;-75
2023/12/07 08:05:17;;;;;;;17.70;11.05;;;;;;;1.92;80.56;97100.50;5055349;28;20094;-77
2023/12/07 08:07:45;;;;;;;35.70;11.95;;;;;;;1.96;82.34;97096.75;5055162;28;20136;-75
2023/12/07 08:10:13;;;;;;;18.23;10.73;;;;;;;2.00;83.27;97092.22;5055322;28;20049;-76
2023/12/07 08:12:42;;;;;;;13.00;9.10;;;;;;;2.01;83.05;97086.97;5055341;28;20052;-75
2023/12/07 08:15:10;;;;;;;12.75;9.55;;;;;;;2.01;81.67;97091.25;5062223;28;20093;-76
2023/12/07 08:17:40;;;;;;;15.55;11.10;;;;;;;1.99;81.23;97096.53;5089136;28;20049;-76
2023/12/07 08:20:10;;;;;;;16.30;11.43;;;;;;;2.02;81.92;97106.59;5096309;28;20052;-76
2023/12/07 08:22:37;;;;;;;27.20;11.80;;;;;;;2.08;83.56;97099.34;5057635;28;20049;-75
2023/12/07 08:25:06;;;;;;;18.55;11.45;;;;;;;2.12;84.38;97095.59;5068372;28;20045;-76
2023/12/07 08:27:39;;;;;;;21.48;12.07;;;;;;;2.16;84.49;97102.16;5055176;28;20041;-76
2023/12/07 08:30:09;;;;;;;23.92;13.48;;;;;;;2.17;83.59;97102.03;5054903;28;20170;-76
2023/12/07 08:32:37;;;;;;;23.48;12.93;;;;;;;2.13;82.68;97107.53;5061120;28;20060;-75
2023/12/07 08:35:06;;;;;;;27.58;15.55;;;;;;;2.09;82.71;97106.94;5073250;28;20044;-76
2023/12/07 08:37:34;;;;;;;28.45;14.30;;;;;;;2.10;83.04;97111.16;5079560;28;20073;-77
2023/12/07 08:40:01;;;;;;;26.58;15.30;;;;;;;2.14;83.71;97104.03;5085790;28;20048;-77
2023/12/07 08:42:31;;;;;;;24.10;15.82;;;;;;;2.20;85.09;97108.72;5078047;28;20065;-77
2023/12/07 08:44:59;;;;;;;23.35;14.30;;;;;;;2.22;84.27;97105.06;5065906;28;20495;-76
2023/12/07 08:47:30;;;;;;;19.92;13.88;;;;;;;2.22;83.49;97106.84;5064308;28;20114;-76
2023/12/07 08:49:57;;;;;;;20.50;13.50;;;;;;;2.23;82.71;97113.59;5055285;28;20124;-75
2023/12/07 08:52:25;;;;;;;20.48;14.13;;;;;;;2.23;83.13;97119.59;5056958;28;20049;-76
2023/12/07 08:55:09;;;;;;;20.30;13.43;;;;;;;2.25;83.04;97111.75;5069856;28;20420;-76
2023/12/07 08:57:37;;;;;;;22.73;15.27;;;;;;;2.24;82.30;97110.13;5069744;28;20056;-75
2023/12/07 09:00:06;;;;;;;24.02;16.05;;;;;;;2.25;83.90;97120.31;5044605;28;20095;-75
2023/12/07 09:02:35;;;;;;;21.65;15.15;;;;;;;2.29;84.49;97120.06;5053013;28;20500;-78
2023/12/07 09:05:14;;;;;;;25.10;16.10;;;;;;;2.35;85.14;97117.03;5063232;28;20052;-75
2023/12/07 09:07:42;;;;;;;25.02;15.75;;;;;;;2.35;84.06;97117.81;5074282;28;20086;-75
2023/12/07 09:10:10;;;;;;;25.80;17.70;;;;;;;2.34;82.67;97121.34;5074374;28;20060;-77
2023/12/07 09:12:38;;;;;;;26.25;18.33;;;;;;;2.35;82.61;97117.81;5073711;28;20424;-75
2023/12/07 09:15:09;;;;;;;24.40;16.42;;;;;;;2.35;82.24;97112.69;5072206;28;20527;-76
2023/12/07 09:17:40;;;;;;;25.33;15.93;;;;;;;2.38;82.03;97111.63;5065048;28;20102;-76
2023/12/07 09:20:11;;;;;;;23.92;15.57;;;;;;;2.40;81.29;97114.91;5053656;28;20123;-76
2023/12/07 09:22:41;;;;;;;25.63;17.48;;;;;;;2.38;80.33;97116.78;5053792;28;20053;-76
2023/12/07 09:25:10;;;;;;;25.92;16.73;;;;;;;2.36;80.34;97116.91;5057370;28;20500;-76
2023/12/07 09:27:38;;;;;;;24.65;15.95;;;;;;;2.37;79.86;97115.97;5055998;28;20055;-75
2023/12/07 09:30:07;;;;;;;29.17;17.25;;;;;;;2.39;80.95;97115.84;5059837;28;20101;-76
2023/12/07 09:32:38;;;;;;;26.25;17.20;;;;;;;2.43;82.16;97114.69;5058114;28;20056;-75
2023/12/07 09:35:08;;;;;;;25.50;16.55;;;;;;;2.50;82.76;97112.44;5054090;28;20053;-76
2023/12/07 09:37:35;;;;;;;20.65;14.38;;;;;;;2.55;81.75;97112.91;5054187;28;20056;-76
2023/12/07 09:40:05;;;;;;;20.20;14.27;;;;;;;2.61;81.30;97113.25;5058617;28;20423;-76
2023/12/07 09:42:33;;;;;;;22.65;14.57;;;;;;;2.66;81.01;97108.53;5059255;28;20088;-75
2023/12/07 09:45:04;;;;;;;21.00;14.75;;;;;;;2.73;81.52;97111.47;5057352;28;20131;-77
2023/12/07 09:47:34;;;;;;;24.40;14.90;;;;;;;2.83;82.65;97107.22;5066315;28;20142;-75
2023/12/07 09:50:08;;;;;;;17.20;12.07;;;;;;;2.92;81.75;97102.28;5034046;28;20132;-76
2023/12/07 09:52:36;;;;;;;19.00;12.98;;;;;;;2.96;81.46;97088.22;5058895;28;20053;-76
2023/12/07 09:55:05;;;;;;;18.83;13.40;;;;;;;3.05;81.54;97077.19;5053469;28;20048;-76
2023/12/07 09:57:33;;;;;;;18.33;12.68;;;;;;;3.13;80.50;97071.41;5053131;28;20063;-76
2023/12/07 10:00:02;;;;;;;18.98;12.45;;;;;;;3.19;80.51;97069.16;5053776;28;20056;-76
2023/12/07 10:02:30;;;;;;;16.70;11.75;;;;;;;3.30;80.84;97053.66;5053129;28;20475;-76
2023/12/07 10:05:05;;;;;;;20.90;12.85;;;;;;;3.41;82.18;97054.50;5059987;28;20132;-76
2023/12/07 10:07:37;;;;;;;15.00;11.13;;;;;;;3.52;81.12;97051.88;5051767;28;20052;-76
2023/12/07 10:10:06;;;;;;;22.45;12.90;;;;;;;3.60;80.40;97054.63;5052216;28;20136;-75
2023/12/07 10:12:35;;;;;;;20.40;12.13;;;;;;;3.70;81.18;97050.34;5051554;28;20049;-76
2023/12/07 10:15:13;;;;;;;14.80;10.60;;;;;;;3.79;78.66;97046.19;5047116;28;20045;-76
2023/12/07 10:17:47;;;;;;;15.25;10.50;;;;;;;3.82;77.71;97045.09;5032839;28;20045;-76
2023/12/07 10:20:17;;;;;;;17.73;11.38;;;;;;;3.89;78.67;97046.22;5035911;28;20681;-76
2023/12/07 10:22:46;;;;;;;14.73;11.23;;;;;;;3.96;78.46;97039.63;5074551;28;20073;-76
2023/12/07 10:25:15;;;;;;;13.93;10.45;;;;;;;4.04;79.46;97044.13;5080547;28;20066;-76
2023/12/07 10:27:44;;;;;;;13.45;9.77;;;;;;;4.10;79.51;97035.84;5075750;28;20579;-77
2023/12/07 10:30:12;;;;;;;12.32;8.40;;;;;;;4.19;78.60;97035.06;5079542;28;20055;-76
2023/12/07 10:32:40;;;;;;;15.82;10.45;;;;;;;4.26;77.85;97031.03;5057100;28;20045;-76
2023/12/07 10:35:09;;;;;;;10.38;8.00;;;;;;;4.34;77.06;97035.53;5055563;28;20072;-76
2023/12/07 10:37:37;;;;;;;15.20;9.00;;;;;;;4.38;75.78;97029.16;5053264;28;20053;-76
2023/12/07 10:40:07;;;;;;;10.20;7.97;;;;;;;4.42;74.32;97030.53;5070576;28;20680;-77
2023/12/07 10:42:38;;;;;;;14.50;9.38;;;;;;;4.50;77.12;97022.94;5089067;28;20063;-77
2023/12/07 10:45:07;;;;;;;14.73;9.75;;;;;;;4.59;77.00;97021.31;5088615;28;20075;-78
2023/12/07 10:47:37;;;;;;;19.10;10.30;;;;;;;4.68;75.18;97019.66;5061760;28;20102;-77
2023/12/07 10:50:10;;;;;;;14.35;10.00;;;;;;;4.73;75.35;97022.69;5073828;28;20064;-76
2023/12/07 10:52:49;;;;;;;14.23;9.75;;;;;;;4.81;75.28;97009.91;5076461;28;20059;-76
2023/12/07 10:55:22;;;;;;;13.48;9.50;;;;;;;4.90;73.93;97013.44;5072404;28;20059;-75
2023/12/07 10:57:53;;;;;;;14.20;9.10;;;;;;;4.97;72.47;97008.56;5073373;28;20048;-76
2023/12/07 11:00:23;;;;;;;11.02;9.00;;;;;;;5.02;72.22;96998.59;5070348;28;20040;-76
2023/12/07 11:03:09;;;;;;;13.40;10.48;;;;;;;5.08;74.43;96985.13;5073364;28;20044;-76
2023/12/07 11:05:37;;;;;;;13.35;8.48;;;;;;;5.14;73.55;96977.66;5073708;28;20049;-75
2023/12/07 11:08:08;;;;;;;12.60;8.85;;;;;;;5.26;72.43;96975.72;5058780;28;20136;-76
2023/12/07 11:10:47;;;;;;;12.90;7.65;;;;;;;5.42;70.28;96982.88;5079560;28;20423;-75
2023/12/07 11:13:19;;;;;;;11.30;7.82;;;;;;;5.59;71.22;96978.75;5063348;28;20576;-77
2023/12/07 11:15:47;;;;;;;9.32;7.13;;;;;;;5.75;70.99;96968.63;5062569;28;20045;-76
2023/12/07 11:18:15;;;;;;;8.88;6.78;;;;;;;5.89;69.95;96969.13;5063285;28;20127;-76
2023/12/07 11:20:45;;;;;;;12.70;7.10;;;;;;;6.07;70.99;96967.41;5067092;28;20416;-76
2023/12/07 11:23:17;;;;;;;10.88;7.95;;;;;;;6.32;71.73;96976.28;5081818;28;20040;-77
2023/12/07 11:25:46;;;;;;;10.38;8.10;;;;;;;6.51;68.53;96974.53;5079012;28;20109;-77
2023/12/07 11:28:16;;;;;;;10.40;7.07;;;;;;;6.68;69.87;96976.31;5058632;28;20053;-77
2023/12/07 11:30:45;;;;;;;11.27;7.95;;;;;;;6.90;70.39;96984.63;5067982;28;20056;-76
2023/12/07 11:33:13;;;;;;;12.57;8.20;;;;;;;7.15;69.12;96983.84;5075746;28;20049;-76